sensor_id;sensor_type;location;lat;lon;timestamp;P1;durP1;ratioP1;P2;durP2;ratioP2
27051;SDS011;14601;49.358;8.256;2022-08-26T00:00:43;8.18;;;5.93;;
27051;SDS011;14601;49.358;8.256;2022-08-26T00:03:46;8.10;;;6.25;;
27051;SDS011;14601;49.358;8.256;2022-08-26T00:06:48;9.43;;;6.00;;
27051;SDS011;14601;49.358;8.256;2022-08-26T00:09:50;8.80;;;6.50;;
27051;SDS011;14601;49.358;8.256;2022-08-26T00:12:52;8.93;;;6.20;;
27051;SDS011;14601;49.358;8.256;2022-08-26T00:15:56;7.05;;;6.30;;
27051;SDS011;14601;49.358;8.256;2022-08-26T00:18:57;6.80;;;6.15;;
27051;SDS011;14601;49.358;8.256;2022-08-26T00:22:00;9.65;;;5.85;;
27051;SDS011;14601;49.358;8.256;2022-08-26T00:25:02;6.95;;;6.05;;
27051;SDS011;14601;49.358;8.256;2022-08-26T00:28:04;9.02;;;6.32;;
27051;SDS011;14601;49.358;8.256;2022-08-26T00:31:07;7.93;;;6.80;;
27051;SDS011;14601;49.358;8.256;2022-08-26T00:34:09;7.72;;;5.97;;
27051;SDS011;14601;49.358;8.256;2022-08-26T00:37:11;9.48;;;6.35;;
27051;SDS011;14601;49.358;8.256;2022-08-26T00:40:14;7.30;;;6.35;;
27051;SDS011;14601;49.358;8.256;2022-08-26T00:43:18;8.32;;;6.05;;
27051;SDS011;14601;49.358;8.256;2022-08-26T00:46:22;8.98;;;6.10;;
27051;SDS011;14601;49.358;8.256;2022-08-26T00:49:30;8.07;;;5.93;;
27051;SDS011;14601;49.358;8.256;2022-08-26T00:52:37;10.02;;;6.55;;
27051;SDS011;14601;49.358;8.256;2022-08-26T00:55:40;7.30;;;6.47;;
27051;SDS011;14601;49.358;8.256;2022-08-26T00:58:42;7.38;;;6.05;;
27051;SDS011;14601;49.358;8.256;2022-08-26T01:01:48;8.40;;;6.63;;
27051;SDS011;14601;49.358;8.256;2022-08-26T01:04:51;6.85;;;6.25;;
27051;SDS011;14601;49.358;8.256;2022-08-26T01:07:55;7.47;;;6.75;;
27051;SDS011;14601;49.358;8.256;2022-08-26T01:10:57;8.68;;;6.75;;
27051;SDS011;14601;49.358;8.256;2022-08-26T01:14:02;7.70;;;6.28;;
27051;SDS011;14601;49.358;8.256;2022-08-26T01:17:08;7.15;;;6.28;;
27051;SDS011;14601;49.358;8.256;2022-08-26T01:20:15;9.18;;;6.82;;
27051;SDS011;14601;49.358;8.256;2022-08-26T01:23:26;7.90;;;6.30;;
27051;SDS011;14601;49.358;8.256;2022-08-26T01:26:32;8.05;;;6.75;;
27051;SDS011;14601;49.358;8.256;2022-08-26T01:29:40;8.15;;;6.65;;
27051;SDS011;14601;49.358;8.256;2022-08-26T01:32:44;9.38;;;7.15;;
27051;SDS011;14601;49.358;8.256;2022-08-26T01:35:47;6.90;;;6.30;;
27051;SDS011;14601;49.358;8.256;2022-08-26T01:38:51;8.20;;;6.43;;
27051;SDS011;14601;49.358;8.256;2022-08-26T01:41:53;7.93;;;6.05;;
27051;SDS011;14601;49.358;8.256;2022-08-26T01:44:58;8.18;;;6.95;;
27051;SDS011;14601;49.358;8.256;2022-08-26T01:48:06;7.40;;;6.57;;
27051;SDS011;14601;49.358;8.256;2022-08-26T01:51:11;7.55;;;6.68;;
27051;SDS011;14601;49.358;8.256;2022-08-26T01:54:16;7.97;;;7.18;;
27051;SDS011;14601;49.358;8.256;2022-08-26T01:57:18;9.60;;;7.13;;
27051;SDS011;14601;49.358;8.256;2022-08-26T02:00:21;10.10;;;7.22;;
27051;SDS011;14601;49.358;8.256;2022-08-26T02:03:24;8.38;;;7.07;;
27051;SDS011;14601;49.358;8.256;2022-08-26T02:06:27;7.43;;;6.70;;
27051;SDS011;14601;49.358;8.256;2022-08-26T02:09:31;10.05;;;6.95;;
27051;SDS011;14601;49.358;8.256;2022-08-26T02:12:33;8.38;;;6.88;;
27051;SDS011;14601;49.358;8.256;2022-08-26T02:15:35;7.75;;;6.95;;
27051;SDS011;14601;49.358;8.256;2022-08-26T02:18:41;11.48;;;6.97;;
27051;SDS011;14601;49.358;8.256;2022-08-26T02:21:44;7.88;;;7.07;;
27051;SDS011;14601;49.358;8.256;2022-08-26T02:24:50;8.70;;;6.75;;
27051;SDS011;14601;49.358;8.256;2022-08-26T02:27:54;7.70;;;6.90;;
27051;SDS011;14601;49.358;8.256;2022-08-26T02:30:57;7.88;;;7.03;;
27051;SDS011;14601;49.358;8.256;2022-08-26T02:34:05;8.60;;;7.45;;
27051;SDS011;14601;49.358;8.256;2022-08-26T02:37:09;7.90;;;7.15;;
27051;SDS011;14601;49.358;8.256;2022-08-26T02:40:13;8.32;;;7.32;;
27051;SDS011;14601;49.358;8.256;2022-08-26T02:43:15;7.97;;;7.28;;
27051;SDS011;14601;49.358;8.256;2022-08-26T02:46:17;8.13;;;7.28;;
27051;SDS011;14601;49.358;8.256;2022-08-26T02:49:19;10.93;;;7.35;;
27051;SDS011;14601;49.358;8.256;2022-08-26T02:52:22;9.55;;;7.47;;
27051;SDS011;14601;49.358;8.256;2022-08-26T02:55:25;8.13;;;7.05;;
27051;SDS011;14601;49.358;8.256;2022-08-26T02:58:27;8.13;;;7.32;;
27051;SDS011;14601;49.358;8.256;2022-08-26T03:01:30;7.80;;;7.07;;
27051;SDS011;14601;49.358;8.256;2022-08-26T03:04:34;9.05;;;7.35;;
27051;SDS011;14601;49.358;8.256;2022-08-26T03:07:35;8.00;;;7.22;;
27051;SDS011;14601;49.358;8.256;2022-08-26T03:10:39;8.10;;;7.30;;
27051;SDS011;14601;49.358;8.256;2022-08-26T03:13:41;8.07;;;7.07;;
27051;SDS011;14601;49.358;8.256;2022-08-26T03:16:43;8.20;;;7.47;;
27051;SDS011;14601;49.358;8.256;2022-08-26T03:19:44;9.52;;;7.28;;
27051;SDS011;14601;49.358;8.256;2022-08-26T03:22:46;12.98;;;8.05;;
27051;SDS011;14601;49.358;8.256;2022-08-26T03:25:52;13.98;;;7.60;;
27051;SDS011;14601;49.358;8.256;2022-08-26T03:28:54;8.23;;;7.15;;
27051;SDS011;14601;49.358;8.256;2022-08-26T03:32:13;8.45;;;7.40;;
27051;SDS011;14601;49.358;8.256;2022-08-26T03:35:16;7.82;;;6.97;;
27051;SDS011;14601;49.358;8.256;2022-08-26T03:38:18;7.65;;;6.95;;
27051;SDS011;14601;49.358;8.256;2022-08-26T03:41:23;9.27;;;7.80;;
27051;SDS011;14601;49.358;8.256;2022-08-26T03:44:24;9.23;;;7.88;;
27051;SDS011;14601;49.358;8.256;2022-08-26T03:47:26;8.02;;;7.22;;
27051;SDS011;14601;49.358;8.256;2022-08-26T03:50:28;9.52;;;8.25;;
27051;SDS011;14601;49.358;8.256;2022-08-26T03:53:30;10.48;;;8.68;;
27051;SDS011;14601;49.358;8.256;2022-08-26T03:56:34;9.73;;;8.13;;
27051;SDS011;14601;49.358;8.256;2022-08-26T03:59:36;11.25;;;8.48;;
27051;SDS011;14601;49.358;8.256;2022-08-26T04:02:38;9.10;;;7.90;;
27051;SDS011;14601;49.358;8.256;2022-08-26T04:05:40;8.30;;;7.50;;
27051;SDS011;14601;49.358;8.256;2022-08-26T04:08:42;9.70;;;7.88;;
27051;SDS011;14601;49.358;8.256;2022-08-26T04:11:46;9.82;;;8.07;;
27051;SDS011;14601;49.358;8.256;2022-08-26T04:14:48;8.48;;;7.60;;
27051;SDS011;14601;49.358;8.256;2022-08-26T04:17:50;9.80;;;8.18;;
27051;SDS011;14601;49.358;8.256;2022-08-26T04:20:52;11.15;;;8.13;;
27051;SDS011;14601;49.358;8.256;2022-08-26T04:23:54;9.35;;;8.45;;
27051;SDS011;14601;49.358;8.256;2022-08-26T04:26:57;9.57;;;8.65;;
27051;SDS011;14601;49.358;8.256;2022-08-26T04:30:02;9.10;;;8.18;;
27051;SDS011;14601;49.358;8.256;2022-08-26T04:33:05;10.90;;;8.10;;
27051;SDS011;14601;49.358;8.256;2022-08-26T04:36:07;9.52;;;8.35;;
27051;SDS011;14601;49.358;8.256;2022-08-26T04:39:11;9.40;;;8.38;;
27051;SDS011;14601;49.358;8.256;2022-08-26T04:42:17;9.73;;;8.82;;
27051;SDS011;14601;49.358;8.256;2022-08-26T04:45:19;11.80;;;8.90;;
27051;SDS011;14601;49.358;8.256;2022-08-26T04:48:21;11.77;;;8.60;;
27051;SDS011;14601;49.358;8.256;2022-08-26T04:51:23;9.50;;;8.30;;
27051;SDS011;14601;49.358;8.256;2022-08-26T04:54:27;9.77;;;8.88;;
27051;SDS011;14601;49.358;8.256;2022-08-26T04:57:31;11.55;;;8.60;;
27051;SDS011;14601;49.358;8.256;2022-08-26T05:00:32;11.05;;;8.50;;
27051;SDS011;14601;49.358;8.256;2022-08-26T05:03:34;12.60;;;8.80;;
27051;SDS011;14601;49.358;8.256;2022-08-26T05:06:36;10.98;;;8.63;;
27051;SDS011;14601;49.358;8.256;2022-08-26T05:09:39;11.18;;;8.38;;
27051;SDS011;14601;49.358;8.256;2022-08-26T05:12:42;10.60;;;8.13;;
27051;SDS011;14601;49.358;8.256;2022-08-26T05:15:44;15.68;;;8.60;;
27051;SDS011;14601;49.358;8.256;2022-08-26T05:18:47;11.68;;;8.30;;
27051;SDS011;14601;49.358;8.256;2022-08-26T05:21:49;12.07;;;8.10;;
27051;SDS011;14601;49.358;8.256;2022-08-26T05:24:51;12.32;;;8.43;;
27051;SDS011;14601;49.358;8.256;2022-08-26T05:27:54;14.10;;;8.73;;
27051;SDS011;14601;49.358;8.256;2022-08-26T05:30:56;12.98;;;8.85;;
27051;SDS011;14601;49.358;8.256;2022-08-26T05:33:58;9.93;;;8.02;;
27051;SDS011;14601;49.358;8.256;2022-08-26T05:37:02;11.48;;;7.70;;
27051;SDS011;14601;49.358;8.256;2022-08-26T05:40:05;10.30;;;7.85;;
27051;SDS011;14601;49.358;8.256;2022-08-26T05:43:09;11.00;;;8.20;;
27051;SDS011;14601;49.358;8.256;2022-08-26T05:46:12;11.53;;;7.77;;
27051;SDS011;14601;49.358;8.256;2022-08-26T05:49:14;16.52;;;8.15;;
27051;SDS011;14601;49.358;8.256;2022-08-26T05:52:16;15.20;;;8.55;;
27051;SDS011;14601;49.358;8.256;2022-08-26T05:55:18;13.38;;;7.97;;
27051;SDS011;14601;49.358;8.256;2022-08-26T05:58:22;10.13;;;8.13;;
27051;SDS011;14601;49.358;8.256;2022-08-26T06:01:25;11.45;;;8.15;;
27051;SDS011;14601;49.358;8.256;2022-08-26T06:04:28;15.23;;;8.43;;
27051;SDS011;14601;49.358;8.256;2022-08-26T06:07:30;12.73;;;8.38;;
27051;SDS011;14601;49.358;8.256;2022-08-26T06:10:46;11.05;;;8.27;;
27051;SDS011;14601;49.358;8.256;2022-08-26T06:13:51;11.48;;;8.35;;
27051;SDS011;14601;49.358;8.256;2022-08-26T06:16:54;11.80;;;8.48;;
27051;SDS011;14601;49.358;8.256;2022-08-26T06:19:57;12.00;;;8.15;;
27051;SDS011;14601;49.358;8.256;2022-08-26T06:22:58;10.85;;;7.82;;
27051;SDS011;14601;49.358;8.256;2022-08-26T06:26:18;12.32;;;8.85;;
27051;SDS011;14601;49.358;8.256;2022-08-26T06:29:21;15.48;;;9.75;;
27051;SDS011;14601;49.358;8.256;2022-08-26T06:32:25;12.60;;;8.68;;
27051;SDS011;14601;49.358;8.256;2022-08-26T06:35:27;12.75;;;8.43;;
27051;SDS011;14601;49.358;8.256;2022-08-26T06:38:29;10.40;;;8.32;;
27051;SDS011;14601;49.358;8.256;2022-08-26T06:41:31;10.55;;;8.07;;
27051;SDS011;14601;49.358;8.256;2022-08-26T06:44:35;14.82;;;8.20;;
27051;SDS011;14601;49.358;8.256;2022-08-26T06:47:37;9.45;;;7.68;;
27051;SDS011;14601;49.358;8.256;2022-08-26T06:50:39;14.82;;;7.95;;
27051;SDS011;14601;49.358;8.256;2022-08-26T06:53:41;12.57;;;7.63;;
27051;SDS011;14601;49.358;8.256;2022-08-26T06:56:46;15.65;;;7.82;;
27051;SDS011;14601;49.358;8.256;2022-08-26T06:59:49;10.63;;;6.93;;
27051;SDS011;14601;49.358;8.256;2022-08-26T07:02:51;13.55;;;6.70;;
27051;SDS011;14601;49.358;8.256;2022-08-26T07:05:53;10.82;;;6.70;;
27051;SDS011;14601;49.358;8.256;2022-08-26T07:09:03;13.80;;;6.40;;
27051;SDS011;14601;49.358;8.256;2022-08-26T07:12:06;11.75;;;7.40;;
27051;SDS011;14601;49.358;8.256;2022-08-26T07:15:10;10.82;;;6.80;;
27051;SDS011;14601;49.358;8.256;2022-08-26T07:18:13;7.97;;;7.13;;
27051;SDS011;14601;49.358;8.256;2022-08-26T07:21:16;8.63;;;6.60;;
27051;SDS011;14601;49.358;8.256;2022-08-26T07:24:18;14.70;;;6.60;;
27051;SDS011;14601;49.358;8.256;2022-08-26T07:27:19;11.30;;;6.38;;
27051;SDS011;14601;49.358;8.256;2022-08-26T07:30:23;12.43;;;7.10;;
27051;SDS011;14601;49.358;8.256;2022-08-26T07:33:25;16.88;;;6.93;;
27051;SDS011;14601;49.358;8.256;2022-08-26T07:36:27;9.52;;;5.97;;
27051;SDS011;14601;49.358;8.256;2022-08-26T07:39:29;12.40;;;5.95;;
27051;SDS011;14601;49.358;8.256;2022-08-26T07:42:32;16.92;;;6.25;;
27051;SDS011;14601;49.358;8.256;2022-08-26T07:45:36;11.32;;;5.82;;
27051;SDS011;14601;49.358;8.256;2022-08-26T07:48:38;11.10;;;5.57;;
27051;SDS011;14601;49.358;8.256;2022-08-26T07:51:40;9.23;;;5.18;;
27051;SDS011;14601;49.358;8.256;2022-08-26T07:54:43;7.07;;;5.30;;
27051;SDS011;14601;49.358;8.256;2022-08-26T07:57:44;7.28;;;4.65;;
27051;SDS011;14601;49.358;8.256;2022-08-26T08:00:48;8.27;;;4.93;;
27051;SDS011;14601;49.358;8.256;2022-08-26T08:03:50;11.90;;;5.35;;
27051;SDS011;14601;49.358;8.256;2022-08-26T08:06:53;7.88;;;5.03;;
27051;SDS011;14601;49.358;8.256;2022-08-26T08:09:55;9.13;;;5.38;;
27051;SDS011;14601;49.358;8.256;2022-08-26T08:12:57;9.02;;;5.75;;
27051;SDS011;14601;49.358;8.256;2022-08-26T08:16:05;10.00;;;4.57;;
27051;SDS011;14601;49.358;8.256;2022-08-26T08:22:09;6.60;;;5.10;;
27051;SDS011;14601;49.358;8.256;2022-08-26T08:25:11;11.45;;;5.22;;
27051;SDS011;14601;49.358;8.256;2022-08-26T08:28:13;7.88;;;5.20;;
27051;SDS011;14601;49.358;8.256;2022-08-26T08:31:21;14.15;;;5.45;;
27051;SDS011;14601;49.358;8.256;2022-08-26T08:34:23;8.55;;;4.93;;
27051;SDS011;14601;49.358;8.256;2022-08-26T08:37:27;6.95;;;5.45;;
27051;SDS011;14601;49.358;8.256;2022-08-26T08:40:29;9.45;;;5.00;;
27051;SDS011;14601;49.358;8.256;2022-08-26T08:43:31;7.28;;;5.03;;
27051;SDS011;14601;49.358;8.256;2022-08-26T08:46:41;10.35;;;5.22;;
27051;SDS011;14601;49.358;8.256;2022-08-26T08:49:45;13.98;;;5.43;;
27051;SDS011;14601;49.358;8.256;2022-08-26T08:52:47;8.40;;;5.30;;
27051;SDS011;14601;49.358;8.256;2022-08-26T08:56:01;11.35;;;5.47;;
27051;SDS011;14601;49.358;8.256;2022-08-26T08:59:12;9.32;;;6.10;;
27051;SDS011;14601;49.358;8.256;2022-08-26T09:02:21;13.30;;;5.65;;
27051;SDS011;14601;49.358;8.256;2022-08-26T09:05:29;18.05;;;5.93;;
27051;SDS011;14601;49.358;8.256;2022-08-26T09:08:33;10.05;;;5.70;;
27051;SDS011;14601;49.358;8.256;2022-08-26T09:11:36;9.52;;;5.82;;
27051;SDS011;14601;49.358;8.256;2022-08-26T09:14:37;9.07;;;5.65;;
27051;SDS011;14601;49.358;8.256;2022-08-26T09:17:42;8.65;;;5.40;;
27051;SDS011;14601;49.358;8.256;2022-08-26T09:20:52;9.32;;;5.97;;
27051;SDS011;14601;49.358;8.256;2022-08-26T09:23:57;9.25;;;5.47;;
27051;SDS011;14601;49.358;8.256;2022-08-26T09:26:59;8.65;;;5.15;;
27051;SDS011;14601;49.358;8.256;2022-08-26T09:30:01;10.35;;;5.72;;
27051;SDS011;14601;49.358;8.256;2022-08-26T09:33:06;8.95;;;5.72;;
27051;SDS011;14601;49.358;8.256;2022-08-26T09:36:14;7.72;;;5.47;;
27051;SDS011;14601;49.358;8.256;2022-08-26T09:39:26;8.80;;;5.60;;
27051;SDS011;14601;49.358;8.256;2022-08-26T09:42:30;9.05;;;5.53;;
27051;SDS011;14601;49.358;8.256;2022-08-26T09:45:32;10.38;;;6.00;;
27051;SDS011;14601;49.358;8.256;2022-08-26T09:48:36;10.63;;;5.60;;
27051;SDS011;14601;49.358;8.256;2022-08-26T09:51:39;8.63;;;5.50;;
27051;SDS011;14601;49.358;8.256;2022-08-26T09:54:42;9.20;;;5.28;;
27051;SDS011;14601;49.358;8.256;2022-08-26T09:57:45;10.55;;;5.63;;
27051;SDS011;14601;49.358;8.256;2022-08-26T10:00:52;9.60;;;5.88;;
27051;SDS011;14601;49.358;8.256;2022-08-26T10:04:03;10.10;;;5.70;;
27051;SDS011;14601;49.358;8.256;2022-08-26T10:07:08;9.50;;;6.30;;
27051;SDS011;14601;49.358;8.256;2022-08-26T10:10:32;13.35;;;5.82;;
27051;SDS011;14601;49.358;8.256;2022-08-26T10:13:39;12.63;;;5.97;;
27051;SDS011;14601;49.358;8.256;2022-08-26T10:16:49;15.02;;;6.13;;
27051;SDS011;14601;49.358;8.256;2022-08-26T10:19:57;13.48;;;6.05;;
27051;SDS011;14601;49.358;8.256;2022-08-26T10:23:04;11.85;;;6.10;;
27051;SDS011;14601;49.358;8.256;2022-08-26T10:26:12;11.07;;;6.18;;
27051;SDS011;14601;49.358;8.256;2022-08-26T10:29:22;7.63;;;6.00;;
27051;SDS011;14601;49.358;8.256;2022-08-26T10:32:30;12.95;;;5.88;;
27051;SDS011;14601;49.358;8.256;2022-08-26T10:35:38;12.05;;;6.43;;
27051;SDS011;14601;49.358;8.256;2022-08-26T10:38:46;11.93;;;6.50;;
27051;SDS011;14601;49.358;8.256;2022-08-26T10:41:49;9.05;;;5.80;;
27051;SDS011;14601;49.358;8.256;2022-08-26T10:44:57;11.23;;;6.00;;
27051;SDS011;14601;49.358;8.256;2022-08-26T10:48:06;8.82;;;5.80;;
27051;SDS011;14601;49.358;8.256;2022-08-26T10:51:14;11.40;;;5.75;;
27051;SDS011;14601;49.358;8.256;2022-08-26T10:54:20;10.38;;;5.40;;
27051;SDS011;14601;49.358;8.256;2022-08-26T10:57:34;7.47;;;6.10;;
27051;SDS011;14601;49.358;8.256;2022-08-26T11:00:45;7.53;;;5.35;;
27051;SDS011;14601;49.358;8.256;2022-08-26T11:04:18;12.77;;;5.70;;
27051;SDS011;14601;49.358;8.256;2022-08-26T11:07:39;7.82;;;5.57;;
27051;SDS011;14601;49.358;8.256;2022-08-26T11:10:52;9.48;;;5.57;;
27051;SDS011;14601;49.358;8.256;2022-08-26T11:14:03;8.57;;;5.72;;
27051;SDS011;14601;49.358;8.256;2022-08-26T11:17:07;7.20;;;5.72;;
27051;SDS011;14601;49.358;8.256;2022-08-26T11:20:10;9.63;;;6.05;;
27051;SDS011;14601;49.358;8.256;2022-08-26T11:23:44;8.85;;;5.90;;
27051;SDS011;14601;49.358;8.256;2022-08-26T11:26:48;10.52;;;5.72;;
27051;SDS011;14601;49.358;8.256;2022-08-26T11:30:00;11.23;;;6.10;;
27051;SDS011;14601;49.358;8.256;2022-08-26T11:33:03;9.35;;;5.75;;
27051;SDS011;14601;49.358;8.256;2022-08-26T11:36:07;9.82;;;5.55;;
27051;SDS011;14601;49.358;8.256;2022-08-26T11:39:14;10.68;;;6.00;;
27051;SDS011;14601;49.358;8.256;2022-08-26T11:42:23;10.73;;;5.85;;
27051;SDS011;14601;49.358;8.256;2022-08-26T11:45:32;11.07;;;5.90;;
27051;SDS011;14601;49.358;8.256;2022-08-26T11:48:37;10.98;;;6.30;;
27051;SDS011;14601;49.358;8.256;2022-08-26T11:51:40;7.70;;;5.07;;
27051;SDS011;14601;49.358;8.256;2022-08-26T11:54:59;11.45;;;5.80;;
27051;SDS011;14601;49.358;8.256;2022-08-26T11:58:04;11.38;;;5.57;;
27051;SDS011;14601;49.358;8.256;2022-08-26T12:01:06;8.70;;;5.25;;
27051;SDS011;14601;49.358;8.256;2022-08-26T12:04:10;8.88;;;5.72;;
27051;SDS011;14601;49.358;8.256;2022-08-26T12:07:22;9.70;;;5.63;;
27051;SDS011;14601;49.358;8.256;2022-08-26T12:10:31;5.75;;;5.18;;
27051;SDS011;14601;49.358;8.256;2022-08-26T12:13:34;7.97;;;5.43;;
27051;SDS011;14601;49.358;8.256;2022-08-26T12:16:38;5.93;;;5.22;;
27051;SDS011;14601;49.358;8.256;2022-08-26T12:19:40;12.43;;;5.93;;
27051;SDS011;14601;49.358;8.256;2022-08-26T12:22:43;6.95;;;4.90;;
27051;SDS011;14601;49.358;8.256;2022-08-26T12:25:46;6.32;;;5.00;;
27051;SDS011;14601;49.358;8.256;2022-08-26T12:28:49;6.85;;;5.25;;
27051;SDS011;14601;49.358;8.256;2022-08-26T12:32:06;5.28;;;4.78;;
27051;SDS011;14601;49.358;8.256;2022-08-26T12:35:10;9.50;;;5.22;;
27051;SDS011;14601;49.358;8.256;2022-08-26T12:38:13;7.22;;;5.50;;
27051;SDS011;14601;49.358;8.256;2022-08-26T12:44:44;6.10;;;5.50;;
27051;SDS011;14601;49.358;8.256;2022-08-26T12:47:52;6.90;;;5.37;;
27051;SDS011;14601;49.358;8.256;2022-08-26T12:50:56;9.80;;;5.38;;
27051;SDS011;14601;49.358;8.256;2022-08-26T12:54:00;6.20;;;4.70;;
27051;SDS011;14601;49.358;8.256;2022-08-26T12:57:09;7.47;;;4.72;;
27051;SDS011;14601;49.358;8.256;2022-08-26T13:03:40;11.45;;;4.60;;
27051;SDS011;14601;49.358;8.256;2022-08-26T13:06:44;7.03;;;4.22;;
27051;SDS011;14601;49.358;8.256;2022-08-26T13:09:46;5.95;;;4.65;;
27051;SDS011;14601;49.358;8.256;2022-08-26T13:12:49;7.38;;;4.25;;
27051;SDS011;14601;49.358;8.256;2022-08-26T13:15:51;10.13;;;4.63;;
27051;SDS011;14601;49.358;8.256;2022-08-26T13:18:54;5.50;;;4.35;;
27051;SDS011;14601;49.358;8.256;2022-08-26T13:21:58;12.45;;;4.93;;
27051;SDS011;14601;49.358;8.256;2022-08-26T13:25:01;4.63;;;4.13;;
27051;SDS011;14601;49.358;8.256;2022-08-26T13:28:04;9.52;;;3.85;;
27051;SDS011;14601;49.358;8.256;2022-08-26T13:31:06;8.13;;;4.28;;
27051;SDS011;14601;49.358;8.256;2022-08-26T13:34:09;5.45;;;4.07;;
27051;SDS011;14601;49.358;8.256;2022-08-26T13:37:13;7.13;;;4.10;;
27051;SDS011;14601;49.358;8.256;2022-08-26T13:40:15;7.60;;;4.25;;
27051;SDS011;14601;49.358;8.256;2022-08-26T13:43:19;7.00;;;4.03;;
27051;SDS011;14601;49.358;8.256;2022-08-26T13:46:20;5.32;;;3.75;;
27051;SDS011;14601;49.358;8.256;2022-08-26T13:49:22;9.55;;;4.22;;
27051;SDS011;14601;49.358;8.256;2022-08-26T13:52:24;6.25;;;3.92;;
27051;SDS011;14601;49.358;8.256;2022-08-26T13:55:26;6.93;;;4.32;;
27051;SDS011;14601;49.358;8.256;2022-08-26T13:58:30;7.50;;;4.60;;
27051;SDS011;14601;49.358;8.256;2022-08-26T14:01:32;9.90;;;4.60;;
27051;SDS011;14601;49.358;8.256;2022-08-26T14:04:35;9.95;;;4.13;;
27051;SDS011;14601;49.358;8.256;2022-08-26T14:07:37;6.90;;;4.20;;
27051;SDS011;14601;49.358;8.256;2022-08-26T14:10:39;5.85;;;4.35;;
27051;SDS011;14601;49.358;8.256;2022-08-26T14:13:42;10.93;;;5.07;;
27051;SDS011;14601;49.358;8.256;2022-08-26T14:16:44;7.97;;;4.85;;
27051;SDS011;14601;49.358;8.256;2022-08-26T14:19:46;7.03;;;5.13;;
27051;SDS011;14601;49.358;8.256;2022-08-26T14:22:50;8.68;;;5.20;;
27051;SDS011;14601;49.358;8.256;2022-08-26T14:25:52;9.10;;;4.72;;
27051;SDS011;14601;49.358;8.256;2022-08-26T14:28:55;8.57;;;5.30;;
27051;SDS011;14601;49.358;8.256;2022-08-26T14:31:57;8.40;;;5.20;;
27051;SDS011;14601;49.358;8.256;2022-08-26T14:35:06;8.13;;;5.22;;
27051;SDS011;14601;49.358;8.256;2022-08-26T14:38:09;7.88;;;5.00;;
27051;SDS011;14601;49.358;8.256;2022-08-26T14:41:11;11.13;;;5.50;;
27051;SDS011;14601;49.358;8.256;2022-08-26T14:44:15;6.30;;;5.05;;
27051;SDS011;14601;49.358;8.256;2022-08-26T14:47:18;9.05;;;4.95;;
27051;SDS011;14601;49.358;8.256;2022-08-26T14:50:21;11.13;;;5.40;;
27051;SDS011;14601;49.358;8.256;2022-08-26T14:53:24;6.37;;;4.67;;
27051;SDS011;14601;49.358;8.256;2022-08-26T14:56:49;5.80;;;5.20;;
27051;SDS011;14601;49.358;8.256;2022-08-26T14:59:54;8.77;;;5.13;;
27051;SDS011;14601;49.358;8.256;2022-08-26T15:02:56;8.43;;;5.03;;
27051;SDS011;14601;49.358;8.256;2022-08-26T15:05:58;6.45;;;5.00;;
27051;SDS011;14601;49.358;8.256;2022-08-26T15:09:00;11.82;;;5.35;;
27051;SDS011;14601;49.358;8.256;2022-08-26T15:12:02;10.18;;;5.32;;
27051;SDS011;14601;49.358;8.256;2022-08-26T15:15:07;7.82;;;6.30;;
27051;SDS011;14601;49.358;8.256;2022-08-26T15:18:11;9.30;;;6.57;;
27051;SDS011;14601;49.358;8.256;2022-08-26T15:21:12;12.43;;;7.20;;
27051;SDS011;14601;49.358;8.256;2022-08-26T15:24:16;13.10;;;7.85;;
27051;SDS011;14601;49.358;8.256;2022-08-26T15:27:20;23.13;;;8.68;;
27051;SDS011;14601;49.358;8.256;2022-08-26T15:30:24;19.30;;;9.60;;
27051;SDS011;14601;49.358;8.256;2022-08-26T15:33:26;13.77;;;8.27;;
27051;SDS011;14601;49.358;8.256;2022-08-26T15:36:29;12.38;;;8.10;;
27051;SDS011;14601;49.358;8.256;2022-08-26T15:39:31;13.70;;;8.48;;
27051;SDS011;14601;49.358;8.256;2022-08-26T15:42:34;15.80;;;8.60;;
27051;SDS011;14601;49.358;8.256;2022-08-26T15:45:37;16.40;;;10.15;;
27051;SDS011;14601;49.358;8.256;2022-08-26T15:48:39;11.77;;;8.90;;
27051;SDS011;14601;49.358;8.256;2022-08-26T15:51:41;17.90;;;12.40;;
27051;SDS011;14601;49.358;8.256;2022-08-26T15:54:43;18.20;;;14.13;;
27051;SDS011;14601;49.358;8.256;2022-08-26T15:57:45;17.55;;;14.65;;
27051;SDS011;14601;49.358;8.256;2022-08-26T16:00:49;19.23;;;14.27;;
27051;SDS011;14601;49.358;8.256;2022-08-26T16:03:51;20.35;;;13.25;;
27051;SDS011;14601;49.358;8.256;2022-08-26T16:06:53;14.23;;;11.13;;
27051;SDS011;14601;49.358;8.256;2022-08-26T16:09:55;10.50;;;9.15;;
27051;SDS011;14601;49.358;8.256;2022-08-26T16:12:57;14.60;;;9.80;;
27051;SDS011;14601;49.358;8.256;2022-08-26T16:16:00;13.20;;;10.63;;
27051;SDS011;14601;49.358;8.256;2022-08-26T16:19:02;12.02;;;10.77;;
27051;SDS011;14601;49.358;8.256;2022-08-26T16:22:04;13.27;;;11.13;;
27051;SDS011;14601;49.358;8.256;2022-08-26T16:25:08;16.10;;;11.35;;
27051;SDS011;14601;49.358;8.256;2022-08-26T16:28:11;13.18;;;10.95;;
27051;SDS011;14601;49.358;8.256;2022-08-26T16:31:15;13.82;;;10.70;;
27051;SDS011;14601;49.358;8.256;2022-08-26T16:34:17;13.18;;;11.75;;
27051;SDS011;14601;49.358;8.256;2022-08-26T16:37:19;14.73;;;11.75;;
27051;SDS011;14601;49.358;8.256;2022-08-26T16:40:21;12.85;;;11.48;;
27051;SDS011;14601;49.358;8.256;2022-08-26T16:43:23;17.90;;;12.98;;
27051;SDS011;14601;49.358;8.256;2022-08-26T16:46:27;17.70;;;12.27;;
27051;SDS011;14601;49.358;8.256;2022-08-26T16:49:29;18.00;;;11.68;;
27051;SDS011;14601;49.358;8.256;2022-08-26T16:52:31;17.77;;;11.52;;
27051;SDS011;14601;49.358;8.256;2022-08-26T16:55:33;22.10;;;10.43;;
27051;SDS011;14601;49.358;8.256;2022-08-26T16:58:35;16.83;;;9.98;;
27051;SDS011;14601;49.358;8.256;2022-08-26T17:01:38;12.50;;;11.18;;
27051;SDS011;14601;49.358;8.256;2022-08-26T17:04:40;19.70;;;11.27;;
27051;SDS011;14601;49.358;8.256;2022-08-26T17:07:42;14.65;;;10.80;;
27051;SDS011;14601;49.358;8.256;2022-08-26T17:10:44;15.10;;;10.63;;
27051;SDS011;14601;49.358;8.256;2022-08-26T17:13:46;21.50;;;11.98;;
27051;SDS011;14601;49.358;8.256;2022-08-26T17:16:49;17.98;;;12.38;;
27051;SDS011;14601;49.358;8.256;2022-08-26T17:19:52;17.38;;;11.50;;
27051;SDS011;14601;49.358;8.256;2022-08-26T17:22:54;16.75;;;12.02;;
27051;SDS011;14601;49.358;8.256;2022-08-26T17:25:57;20.52;;;12.32;;
27051;SDS011;14601;49.358;8.256;2022-08-26T17:28:59;21.60;;;13.02;;
27051;SDS011;14601;49.358;8.256;2022-08-26T17:32:03;18.50;;;13.20;;
27051;SDS011;14601;49.358;8.256;2022-08-26T17:35:05;24.63;;;14.13;;
27051;SDS011;14601;49.358;8.256;2022-08-26T17:38:07;18.77;;;13.15;;
27051;SDS011;14601;49.358;8.256;2022-08-26T17:41:09;20.10;;;14.07;;
27051;SDS011;14601;49.358;8.256;2022-08-26T17:44:12;25.42;;;15.32;;
27051;SDS011;14601;49.358;8.256;2022-08-26T17:47:16;25.48;;;16.90;;
27051;SDS011;14601;49.358;8.256;2022-08-26T17:50:18;22.40;;;15.30;;
27051;SDS011;14601;49.358;8.256;2022-08-26T17:53:20;18.73;;;14.35;;
27051;SDS011;14601;49.358;8.256;2022-08-26T17:56:24;26.90;;;16.80;;
27051;SDS011;14601;49.358;8.256;2022-08-26T17:59:29;28.45;;;20.92;;
27051;SDS011;14601;49.358;8.256;2022-08-26T18:02:32;27.77;;;15.30;;
27051;SDS011;14601;49.358;8.256;2022-08-26T18:05:36;22.33;;;14.85;;
27051;SDS011;14601;49.358;8.256;2022-08-26T18:08:38;17.67;;;14.80;;
27051;SDS011;14601;49.358;8.256;2022-08-26T18:11:41;23.52;;;14.95;;
27051;SDS011;14601;49.358;8.256;2022-08-26T18:14:43;19.17;;;14.23;;
27051;SDS011;14601;49.358;8.256;2022-08-26T18:17:47;26.20;;;14.10;;
27051;SDS011;14601;49.358;8.256;2022-08-26T18:20:48;24.77;;;17.25;;
27051;SDS011;14601;49.358;8.256;2022-08-26T18:23:51;28.83;;;16.70;;
27051;SDS011;14601;49.358;8.256;2022-08-26T18:26:53;19.88;;;14.73;;